sensor_id;sensor_type;location;lat;lon;timestamp;P1;durP1;ratioP1;P2;durP2;ratioP2
17993;SDS011;9122;48.406;9.984;2023-03-11T00:02:18;1.10;;;1.10;;
17993;SDS011;9122;48.406;9.984;2023-03-11T00:05:02;1.63;;;1.50;;
17993;SDS011;9122;48.406;9.984;2023-03-11T00:07:47;1.20;;;1.10;;
17993;SDS011;9122;48.406;9.984;2023-03-11T00:10:33;1.00;;;1.00;;
17993;SDS011;9122;48.406;9.984;2023-03-11T00:13:19;1.03;;;1.03;;
17993;SDS011;9122;48.406;9.984;2023-03-11T00:16:04;1.10;;;1.10;;
17993;SDS011;9122;48.406;9.984;2023-03-11T00:18:51;1.00;;;1.00;;
17993;SDS011;9122;48.406;9.984;2023-03-11T00:21:35;1.00;;;1.00;;
17993;SDS011;9122;48.406;9.984;2023-03-11T00:24:20;0.93;;;0.93;;
17993;SDS011;9122;48.406;9.984;2023-03-11T00:27:05;0.80;;;0.80;;
17993;SDS011;9122;48.406;9.984;2023-03-11T00:29:49;0.83;;;0.83;;
17993;SDS011;9122;48.406;9.984;2023-03-11T00:32:34;1.10;;;1.10;;
17993;SDS011;9122;48.406;9.984;2023-03-11T00:35:23;1.43;;;1.33;;
17993;SDS011;9122;48.406;9.984;2023-03-11T00:38:11;1.40;;;1.30;;
17993;SDS011;9122;48.406;9.984;2023-03-11T00:40:58;0.80;;;0.80;;
17993;SDS011;9122;48.406;9.984;2023-03-11T00:43:44;0.90;;;0.90;;
17993;SDS011;9122;48.406;9.984;2023-03-11T00:46:28;0.67;;;0.67;;
17993;SDS011;9122;48.406;9.984;2023-03-11T00:49:14;1.20;;;1.20;;
17993;SDS011;9122;48.406;9.984;2023-03-11T00:51:58;0.80;;;0.80;;
17993;SDS011;9122;48.406;9.984;2023-03-11T00:54:43;0.80;;;0.80;;
17993;SDS011;9122;48.406;9.984;2023-03-11T00:57:28;0.80;;;0.80;;
17993;SDS011;9122;48.406;9.984;2023-03-11T01:00:14;1.00;;;0.90;;
17993;SDS011;9122;48.406;9.984;2023-03-11T01:03:00;0.83;;;0.83;;
17993;SDS011;9122;48.406;9.984;2023-03-11T01:05:48;0.77;;;0.77;;
17993;SDS011;9122;48.406;9.984;2023-03-11T01:08:32;0.80;;;0.80;;
17993;SDS011;9122;48.406;9.984;2023-03-11T01:11:16;0.60;;;0.60;;
17993;SDS011;9122;48.406;9.984;2023-03-11T01:14:01;1.20;;;1.20;;
17993;SDS011;9122;48.406;9.984;2023-03-11T01:16:46;0.93;;;0.93;;
17993;SDS011;9122;48.406;9.984;2023-03-11T01:19:31;0.70;;;0.70;;
17993;SDS011;9122;48.406;9.984;2023-03-11T01:22:16;0.80;;;0.80;;
17993;SDS011;9122;48.406;9.984;2023-03-11T01:25:00;1.07;;;1.00;;
17993;SDS011;9122;48.406;9.984;2023-03-11T01:27:45;1.03;;;0.90;;
17993;SDS011;9122;48.406;9.984;2023-03-11T01:30:29;0.80;;;0.80;;
17993;SDS011;9122;48.406;9.984;2023-03-11T01:33:15;1.27;;;0.97;;
17993;SDS011;9122;48.406;9.984;2023-03-11T01:36:01;0.90;;;0.90;;
17993;SDS011;9122;48.406;9.984;2023-03-11T01:38:45;1.20;;;1.10;;
17993;SDS011;9122;48.406;9.984;2023-03-11T01:41:30;1.10;;;1.00;;
17993;SDS011;9122;48.406;9.984;2023-03-11T01:44:15;1.17;;;1.07;;
17993;SDS011;9122;48.406;9.984;2023-03-11T01:49:44;1.00;;;1.00;;
17993;SDS011;9122;48.406;9.984;2023-03-11T01:52:29;1.23;;;1.13;;
17993;SDS011;9122;48.406;9.984;2023-03-11T01:55:14;0.87;;;0.87;;
17993;SDS011;9122;48.406;9.984;2023-03-11T01:58:02;1.10;;;1.10;;
17993;SDS011;9122;48.406;9.984;2023-03-11T02:00:50;1.13;;;0.80;;
17993;SDS011;9122;48.406;9.984;2023-03-11T02:03:37;0.70;;;0.70;;
17993;SDS011;9122;48.406;9.984;2023-03-11T02:06:23;0.90;;;0.90;;
17993;SDS011;9122;48.406;9.984;2023-03-11T02:09:08;0.83;;;0.70;;
17993;SDS011;9122;48.406;9.984;2023-03-11T02:11:53;1.00;;;1.00;;
17993;SDS011;9122;48.406;9.984;2023-03-11T02:14:39;1.33;;;1.07;;
17993;SDS011;9122;48.406;9.984;2023-03-11T02:17:27;0.73;;;0.73;;
17993;SDS011;9122;48.406;9.984;2023-03-11T02:23:00;1.10;;;1.10;;
17993;SDS011;9122;48.406;9.984;2023-03-11T02:26:09;1.10;;;1.10;;
17993;SDS011;9122;48.406;9.984;2023-03-11T02:29:03;1.43;;;1.20;;
17993;SDS011;9122;48.406;9.984;2023-03-11T02:31:51;0.90;;;0.90;;
17993;SDS011;9122;48.406;9.984;2023-03-11T02:34:36;2.20;;;1.17;;
17993;SDS011;9122;48.406;9.984;2023-03-11T02:37:23;1.20;;;1.10;;
17993;SDS011;9122;48.406;9.984;2023-03-11T02:40:52;2.27;;;1.10;;
17993;SDS011;9122;48.406;9.984;2023-03-11T02:43:36;1.20;;;1.10;;
17993;SDS011;9122;48.406;9.984;2023-03-11T02:46:24;1.03;;;0.87;;
17993;SDS011;9122;48.406;9.984;2023-03-11T02:49:08;1.00;;;1.00;;
17993;SDS011;9122;48.406;9.984;2023-03-11T02:51:53;1.43;;;1.10;;
17993;SDS011;9122;48.406;9.984;2023-03-11T02:54:38;1.57;;;1.27;;
17993;SDS011;9122;48.406;9.984;2023-03-11T02:57:23;1.40;;;1.30;;
17993;SDS011;9122;48.406;9.984;2023-03-11T03:00:08;1.03;;;1.00;;
17993;SDS011;9122;48.406;9.984;2023-03-11T03:02:57;1.53;;;1.20;;
17993;SDS011;9122;48.406;9.984;2023-03-11T03:05:41;1.70;;;1.40;;
17993;SDS011;9122;48.406;9.984;2023-03-11T03:08:26;1.30;;;1.20;;
17993;SDS011;9122;48.406;9.984;2023-03-11T03:11:10;1.40;;;1.30;;
17993;SDS011;9122;48.406;9.984;2023-03-11T03:13:55;1.60;;;1.50;;
17993;SDS011;9122;48.406;9.984;2023-03-11T03:16:39;1.53;;;1.30;;
17993;SDS011;9122;48.406;9.984;2023-03-11T03:19:24;1.83;;;1.73;;
17993;SDS011;9122;48.406;9.984;2023-03-11T03:22:08;1.40;;;1.30;;
17993;SDS011;9122;48.406;9.984;2023-03-11T03:24:53;1.53;;;1.10;;
17993;SDS011;9122;48.406;9.984;2023-03-11T03:27:38;1.27;;;1.00;;
17993;SDS011;9122;48.406;9.984;2023-03-11T03:30:22;1.87;;;1.20;;
17993;SDS011;9122;48.406;9.984;2023-03-11T03:33:06;1.23;;;1.23;;
17993;SDS011;9122;48.406;9.984;2023-03-11T03:35:51;1.70;;;1.60;;
17993;SDS011;9122;48.406;9.984;2023-03-11T03:38:35;1.60;;;1.50;;
17993;SDS011;9122;48.406;9.984;2023-03-11T03:41:20;1.40;;;1.30;;
17993;SDS011;9122;48.406;9.984;2023-03-11T03:44:05;3.60;;;2.07;;
17993;SDS011;9122;48.406;9.984;2023-03-11T03:46:50;2.03;;;1.50;;
17993;SDS011;9122;48.406;9.984;2023-03-11T03:49:34;3.17;;;1.30;;
17993;SDS011;9122;48.406;9.984;2023-03-11T03:52:19;1.30;;;1.30;;
17993;SDS011;9122;48.406;9.984;2023-03-11T03:55:04;1.80;;;1.70;;
17993;SDS011;9122;48.406;9.984;2023-03-11T03:57:49;1.60;;;1.50;;
17993;SDS011;9122;48.406;9.984;2023-03-11T04:00:34;1.50;;;1.40;;
17993;SDS011;9122;48.406;9.984;2023-03-11T04:03:18;1.10;;;1.10;;
17993;SDS011;9122;48.406;9.984;2023-03-11T04:09:02;1.40;;;1.30;;
17993;SDS011;9122;48.406;9.984;2023-03-11T04:11:47;1.20;;;1.20;;
17993;SDS011;9122;48.406;9.984;2023-03-11T04:14:31;1.57;;;1.30;;
17993;SDS011;9122;48.406;9.984;2023-03-11T04:17:15;1.97;;;1.50;;
17993;SDS011;9122;48.406;9.984;2023-03-11T04:20:00;1.37;;;1.30;;
17993;SDS011;9122;48.406;9.984;2023-03-11T04:22:45;1.90;;;1.30;;
17993;SDS011;9122;48.406;9.984;2023-03-11T04:25:29;1.70;;;1.20;;
17993;SDS011;9122;48.406;9.984;2023-03-11T04:28:13;1.20;;;1.10;;
17993;SDS011;9122;48.406;9.984;2023-03-11T04:30:58;1.10;;;1.10;;
17993;SDS011;9122;48.406;9.984;2023-03-11T04:33:43;3.03;;;1.43;;
17993;SDS011;9122;48.406;9.984;2023-03-11T04:36:27;1.30;;;1.20;;
17993;SDS011;9122;48.406;9.984;2023-03-11T04:39:13;1.17;;;1.03;;
17993;SDS011;9122;48.406;9.984;2023-03-11T04:41:58;1.20;;;1.13;;
17993;SDS011;9122;48.406;9.984;2023-03-11T04:44:43;1.40;;;1.30;;
17993;SDS011;9122;48.406;9.984;2023-03-11T04:47:27;1.27;;;1.20;;
17993;SDS011;9122;48.406;9.984;2023-03-11T04:50:12;0.90;;;0.90;;
17993;SDS011;9122;48.406;9.984;2023-03-11T04:52:56;1.73;;;1.10;;
17993;SDS011;9122;48.406;9.984;2023-03-11T04:55:41;1.50;;;1.00;;
17993;SDS011;9122;48.406;9.984;2023-03-11T04:58:25;1.27;;;1.17;;
17993;SDS011;9122;48.406;9.984;2023-03-11T05:01:09;1.23;;;1.10;;
17993;SDS011;9122;48.406;9.984;2023-03-11T05:03:53;1.73;;;1.20;;
17993;SDS011;9122;48.406;9.984;2023-03-11T05:06:37;1.70;;;0.80;;
17993;SDS011;9122;48.406;9.984;2023-03-11T05:09:22;0.93;;;0.90;;
17993;SDS011;9122;48.406;9.984;2023-03-11T05:12:08;1.03;;;1.03;;
17993;SDS011;9122;48.406;9.984;2023-03-11T05:14:55;1.93;;;1.03;;
17993;SDS011;9122;48.406;9.984;2023-03-11T05:17:39;3.60;;;1.13;;
17993;SDS011;9122;48.406;9.984;2023-03-11T05:20:24;1.03;;;0.80;;
17993;SDS011;9122;48.406;9.984;2023-03-11T05:23:09;2.27;;;0.90;;
17993;SDS011;9122;48.406;9.984;2023-03-11T05:25:53;1.23;;;0.80;;
17993;SDS011;9122;48.406;9.984;2023-03-11T05:28:37;1.37;;;1.13;;
17993;SDS011;9122;48.406;9.984;2023-03-11T05:31:22;1.63;;;0.80;;
17993;SDS011;9122;48.406;9.984;2023-03-11T05:34:07;1.13;;;0.80;;
17993;SDS011;9122;48.406;9.984;2023-03-11T05:36:51;0.97;;;0.90;;
17993;SDS011;9122;48.406;9.984;2023-03-11T05:39:36;2.37;;;1.00;;
17993;SDS011;9122;48.406;9.984;2023-03-11T05:42:20;0.93;;;0.87;;
17993;SDS011;9122;48.406;9.984;2023-03-11T05:45:05;0.90;;;0.90;;
17993;SDS011;9122;48.406;9.984;2023-03-11T05:47:50;1.10;;;1.10;;
17993;SDS011;9122;48.406;9.984;2023-03-11T05:50:34;3.07;;;1.00;;
17993;SDS011;9122;48.406;9.984;2023-03-11T05:53:19;2.57;;;0.93;;
17993;SDS011;9122;48.406;9.984;2023-03-11T05:56:04;1.53;;;0.90;;
17993;SDS011;9122;48.406;9.984;2023-03-11T05:58:48;1.83;;;1.03;;
17993;SDS011;9122;48.406;9.984;2023-03-11T06:01:33;1.13;;;1.07;;
17993;SDS011;9122;48.406;9.984;2023-03-11T06:04:18;1.77;;;0.80;;
17993;SDS011;9122;48.406;9.984;2023-03-11T06:07:03;1.10;;;1.00;;
17993;SDS011;9122;48.406;9.984;2023-03-11T06:09:50;1.40;;;1.30;;
17993;SDS011;9122;48.406;9.984;2023-03-11T06:12:34;2.00;;;0.70;;
17993;SDS011;9122;48.406;9.984;2023-03-11T06:15:19;3.13;;;1.13;;
17993;SDS011;9122;48.406;9.984;2023-03-11T06:18:04;1.50;;;1.10;;
17993;SDS011;9122;48.406;9.984;2023-03-11T06:20:49;3.20;;;1.30;;
17993;SDS011;9122;48.406;9.984;2023-03-11T06:23:33;1.43;;;1.10;;
17993;SDS011;9122;48.406;9.984;2023-03-11T06:26:19;1.93;;;1.40;;
17993;SDS011;9122;48.406;9.984;2023-03-11T06:29:07;1.20;;;1.13;;
17993;SDS011;9122;48.406;9.984;2023-03-11T06:31:56;2.90;;;1.50;;
17993;SDS011;9122;48.406;9.984;2023-03-11T06:34:40;0.93;;;0.90;;
17993;SDS011;9122;48.406;9.984;2023-03-11T06:37:24;3.40;;;1.00;;
17993;SDS011;9122;48.406;9.984;2023-03-11T06:40:10;1.37;;;1.20;;
17993;SDS011;9122;48.406;9.984;2023-03-11T06:42:56;1.43;;;1.33;;
17993;SDS011;9122;48.406;9.984;2023-03-11T06:45:41;2.27;;;1.10;;
17993;SDS011;9122;48.406;9.984;2023-03-11T06:48:25;1.87;;;1.07;;
17993;SDS011;9122;48.406;9.984;2023-03-11T06:51:10;1.70;;;1.13;;
17993;SDS011;9122;48.406;9.984;2023-03-11T06:53:55;2.30;;;1.10;;
17993;SDS011;9122;48.406;9.984;2023-03-11T06:56:40;1.10;;;1.10;;
17993;SDS011;9122;48.406;9.984;2023-03-11T06:59:24;2.17;;;1.43;;
17993;SDS011;9122;48.406;9.984;2023-03-11T07:02:11;1.33;;;1.00;;
17993;SDS011;9122;48.406;9.984;2023-03-11T07:04:57;2.33;;;1.20;;
17993;SDS011;9122;48.406;9.984;2023-03-11T07:07:42;1.80;;;1.10;;
17993;SDS011;9122;48.406;9.984;2023-03-11T07:10:26;2.10;;;1.20;;
17993;SDS011;9122;48.406;9.984;2023-03-11T07:13:11;3.27;;;1.93;;
17993;SDS011;9122;48.406;9.984;2023-03-11T07:18:49;1.63;;;1.33;;
17993;SDS011;9122;48.406;9.984;2023-03-11T07:21:34;1.20;;;1.10;;
17993;SDS011;9122;48.406;9.984;2023-03-11T07:24:19;2.37;;;1.10;;
17993;SDS011;9122;48.406;9.984;2023-03-11T07:27:04;2.43;;;1.00;;
17993;SDS011;9122;48.406;9.984;2023-03-11T07:29:48;1.87;;;0.97;;
17993;SDS011;9122;48.406;9.984;2023-03-11T07:32:33;2.07;;;1.07;;
17993;SDS011;9122;48.406;9.984;2023-03-11T07:35:18;1.47;;;1.00;;
17993;SDS011;9122;48.406;9.984;2023-03-11T07:38:02;1.53;;;1.10;;
17993;SDS011;9122;48.406;9.984;2023-03-11T07:40:47;2.77;;;1.10;;
17993;SDS011;9122;48.406;9.984;2023-03-11T07:43:41;2.23;;;1.10;;
17993;SDS011;9122;48.406;9.984;2023-03-11T07:46:26;2.67;;;1.13;;
17993;SDS011;9122;48.406;9.984;2023-03-11T07:49:12;1.20;;;1.10;;
17993;SDS011;9122;48.406;9.984;2023-03-11T07:51:56;2.33;;;1.30;;
17993;SDS011;9122;48.406;9.984;2023-03-11T07:54:41;1.67;;;1.20;;
17993;SDS011;9122;48.406;9.984;2023-03-11T07:57:25;1.47;;;1.37;;
17993;SDS011;9122;48.406;9.984;2023-03-11T08:00:09;5.43;;;2.70;;
17993;SDS011;9122;48.406;9.984;2023-03-11T08:02:55;7.23;;;4.47;;
17993;SDS011;9122;48.406;9.984;2023-03-11T08:05:39;13.53;;;7.80;;
17993;SDS011;9122;48.406;9.984;2023-03-11T08:08:24;5.80;;;3.63;;
17993;SDS011;9122;48.406;9.984;2023-03-11T08:11:08;7.97;;;4.97;;
17993;SDS011;9122;48.406;9.984;2023-03-11T08:13:54;3.53;;;1.80;;
17993;SDS011;9122;48.406;9.984;2023-03-11T08:16:41;1.07;;;0.90;;
17993;SDS011;9122;48.406;9.984;2023-03-11T08:19:25;1.00;;;1.00;;
17993;SDS011;9122;48.406;9.984;2023-03-11T08:22:10;1.23;;;1.10;;
17993;SDS011;9122;48.406;9.984;2023-03-11T08:24:54;0.90;;;0.87;;
17993;SDS011;9122;48.406;9.984;2023-03-11T08:27:39;2.57;;;1.00;;
17993;SDS011;9122;48.406;9.984;2023-03-11T08:30:24;1.03;;;0.70;;
17993;SDS011;9122;48.406;9.984;2023-03-11T08:33:08;1.60;;;0.90;;
17993;SDS011;9122;48.406;9.984;2023-03-11T08:35:53;0.80;;;0.73;;
17993;SDS011;9122;48.406;9.984;2023-03-11T08:38:38;2.40;;;1.03;;
17993;SDS011;9122;48.406;9.984;2023-03-11T08:41:22;2.30;;;1.10;;
17993;SDS011;9122;48.406;9.984;2023-03-11T08:44:07;2.03;;;1.20;;
17993;SDS011;9122;48.406;9.984;2023-03-11T08:46:51;2.80;;;1.17;;
17993;SDS011;9122;48.406;9.984;2023-03-11T08:49:38;1.23;;;0.80;;
17993;SDS011;9122;48.406;9.984;2023-03-11T08:52:23;1.47;;;0.80;;
17993;SDS011;9122;48.406;9.984;2023-03-11T08:55:08;1.23;;;0.80;;
17993;SDS011;9122;48.406;9.984;2023-03-11T08:57:55;1.77;;;0.93;;
17993;SDS011;9122;48.406;9.984;2023-03-11T09:00:39;1.37;;;0.90;;
17993;SDS011;9122;48.406;9.984;2023-03-11T09:03:24;1.03;;;0.83;;
17993;SDS011;9122;48.406;9.984;2023-03-11T09:06:10;0.50;;;0.50;;
17993;SDS011;9122;48.406;9.984;2023-03-11T09:08:57;2.07;;;1.43;;
17993;SDS011;9122;48.406;9.984;2023-03-11T09:11:42;2.77;;;1.13;;
17993;SDS011;9122;48.406;9.984;2023-03-11T09:14:27;1.00;;;0.70;;
17993;SDS011;9122;48.406;9.984;2023-03-11T09:17:11;1.43;;;1.17;;
17993;SDS011;9122;48.406;9.984;2023-03-11T09:19:57;0.60;;;0.60;;
17993;SDS011;9122;48.406;9.984;2023-03-11T09:22:41;1.40;;;0.77;;
17993;SDS011;9122;48.406;9.984;2023-03-11T09:25:26;1.13;;;0.80;;
17993;SDS011;9122;48.406;9.984;2023-03-11T09:28:10;2.83;;;0.80;;
17993;SDS011;9122;48.406;9.984;2023-03-11T09:30:55;2.43;;;0.87;;
17993;SDS011;9122;48.406;9.984;2023-03-11T09:33:44;1.23;;;0.90;;
17993;SDS011;9122;48.406;9.984;2023-03-11T09:36:29;2.43;;;0.97;;
17993;SDS011;9122;48.406;9.984;2023-03-11T09:39:14;0.70;;;0.60;;
17993;SDS011;9122;48.406;9.984;2023-03-11T09:53:41;0.90;;;0.53;;
17993;SDS011;9122;48.406;9.984;2023-03-11T09:56:29;1.27;;;0.77;;
17993;SDS011;9122;48.406;9.984;2023-03-11T09:59:18;0.73;;;0.73;;
17993;SDS011;9122;48.406;9.984;2023-03-11T10:02:14;0.97;;;0.73;;
17993;SDS011;9122;48.406;9.984;2023-03-11T10:05:03;0.77;;;0.50;;
17993;SDS011;9122;48.406;9.984;2023-03-11T10:08:02;1.17;;;0.80;;
17993;SDS011;9122;48.406;9.984;2023-03-11T10:11:02;0.93;;;0.63;;
17993;SDS011;9122;48.406;9.984;2023-03-11T10:26:20;0.83;;;0.70;;
17993;SDS011;9122;48.406;9.984;2023-03-11T10:29:17;0.83;;;0.63;;
17993;SDS011;9122;48.406;9.984;2023-03-11T10:35:28;0.80;;;0.77;;
17993;SDS011;9122;48.406;9.984;2023-03-11T10:38:23;0.63;;;0.63;;
17993;SDS011;9122;48.406;9.984;2023-03-11T10:41:16;0.77;;;0.77;;
17993;SDS011;9122;48.406;9.984;2023-03-11T10:44:14;1.17;;;0.80;;
17993;SDS011;9122;48.406;9.984;2023-03-11T10:47:11;0.90;;;0.87;;
17993;SDS011;9122;48.406;9.984;2023-03-11T10:50:03;0.97;;;0.90;;
17993;SDS011;9122;48.406;9.984;2023-03-11T10:55:58;0.80;;;0.80;;
17993;SDS011;9122;48.406;9.984;2023-03-11T10:58:47;0.53;;;0.53;;
17993;SDS011;9122;48.406;9.984;2023-03-11T11:01:31;2.00;;;0.93;;
17993;SDS011;9122;48.406;9.984;2023-03-11T11:04:22;0.67;;;0.67;;
17993;SDS011;9122;48.406;9.984;2023-03-11T11:15:56;0.97;;;0.80;;
17993;SDS011;9122;48.406;9.984;2023-03-11T11:21:39;0.80;;;0.80;;
17993;SDS011;9122;48.406;9.984;2023-03-11T11:24:34;1.53;;;1.07;;
17993;SDS011;9122;48.406;9.984;2023-03-11T11:27:27;1.30;;;0.90;;
17993;SDS011;9122;48.406;9.984;2023-03-11T11:30:15;1.77;;;0.80;;
17993;SDS011;9122;48.406;9.984;2023-03-11T11:33:23;2.83;;;0.80;;
17993;SDS011;9122;48.406;9.984;2023-03-11T11:36:11;2.20;;;0.90;;
17993;SDS011;9122;48.406;9.984;2023-03-11T11:38:59;1.00;;;1.00;;
17993;SDS011;9122;48.406;9.984;2023-03-11T11:41:48;1.70;;;0.87;;
17993;SDS011;9122;48.406;9.984;2023-03-11T11:44:33;3.33;;;3.13;;
17993;SDS011;9122;48.406;9.984;2023-03-11T11:47:19;1.10;;;1.10;;
17993;SDS011;9122;48.406;9.984;2023-03-11T11:50:27;1.20;;;1.10;;
17993;SDS011;9122;48.406;9.984;2023-03-11T11:56:19;1.30;;;0.90;;
17993;SDS011;9122;48.406;9.984;2023-03-11T11:59:17;3.13;;;1.90;;
17993;SDS011;9122;48.406;9.984;2023-03-11T12:08:38;1.53;;;0.80;;
17993;SDS011;9122;48.406;9.984;2023-03-11T12:11:50;1.20;;;0.97;;
17993;SDS011;9122;48.406;9.984;2023-03-11T12:18:18;1.00;;;1.00;;
17993;SDS011;9122;48.406;9.984;2023-03-11T12:21:21;0.70;;;0.70;;
17993;SDS011;9122;48.406;9.984;2023-03-11T12:30:35;2.70;;;0.90;;
17993;SDS011;9122;48.406;9.984;2023-03-11T12:36:45;2.33;;;1.10;;
17993;SDS011;9122;48.406;9.984;2023-03-11T12:39:31;1.80;;;1.23;;
17993;SDS011;9122;48.406;9.984;2023-03-11T12:45:39;1.40;;;1.30;;
17993;SDS011;9122;48.406;9.984;2023-03-11T12:54:20;1.33;;;1.17;;
17993;SDS011;9122;48.406;9.984;2023-03-11T13:00:12;1.07;;;1.07;;
17993;SDS011;9122;48.406;9.984;2023-03-11T13:10:01;4.17;;;2.10;;
17993;SDS011;9122;48.406;9.984;2023-03-11T13:12:52;1.70;;;1.30;;
17993;SDS011;9122;48.406;9.984;2023-03-11T13:15:36;0.87;;;0.87;;
17993;SDS011;9122;48.406;9.984;2023-03-11T13:18:27;1.00;;;1.00;;
17993;SDS011;9122;48.406;9.984;2023-03-11T13:27:10;0.83;;;0.83;;
17993;SDS011;9122;48.406;9.984;2023-03-11T13:39:22;2.87;;;2.67;;
17993;SDS011;9122;48.406;9.984;2023-03-11T13:42:32;1.40;;;1.30;;
17993;SDS011;9122;48.406;9.984;2023-03-11T13:45:24;1.17;;;1.17;;
17993;SDS011;9122;48.406;9.984;2023-03-11T13:48:17;1.63;;;1.20;;
17993;SDS011;9122;48.406;9.984;2023-03-11T13:51:13;1.20;;;1.10;;
17993;SDS011;9122;48.406;9.984;2023-03-11T14:00:14;1.40;;;1.30;;
17993;SDS011;9122;48.406;9.984;2023-03-11T14:03:01;1.40;;;1.30;;
17993;SDS011;9122;48.406;9.984;2023-03-11T14:05:59;2.40;;;1.10;;
17993;SDS011;9122;48.406;9.984;2023-03-11T14:09:04;1.63;;;1.43;;
17993;SDS011;9122;48.406;9.984;2023-03-11T14:11:49;1.00;;;0.90;;
17993;SDS011;9122;48.406;9.984;2023-03-11T14:14:47;2.33;;;1.40;;
17993;SDS011;9122;48.406;9.984;2023-03-11T14:17:39;3.20;;;1.67;;
17993;SDS011;9122;48.406;9.984;2023-03-11T14:20:23;2.57;;;1.40;;
17993;SDS011;9122;48.406;9.984;2023-03-11T14:23:10;1.30;;;1.20;;
17993;SDS011;9122;48.406;9.984;2023-03-11T14:26:06;1.50;;;1.40;;
17993;SDS011;9122;48.406;9.984;2023-03-11T14:29:14;2.20;;;1.30;;
17993;SDS011;9122;48.406;9.984;2023-03-11T14:35:19;3.83;;;2.80;;
17993;SDS011;9122;48.406;9.984;2023-03-11T14:38:04;3.40;;;1.67;;
17993;SDS011;9122;48.406;9.984;2023-03-11T14:41:04;2.30;;;1.53;;
17993;SDS011;9122;48.406;9.984;2023-03-11T14:43:50;1.43;;;1.33;;
17993;SDS011;9122;48.406;9.984;2023-03-11T14:46:37;8.17;;;6.20;;
17993;SDS011;9122;48.406;9.984;2023-03-11T14:49:21;6.77;;;6.07;;
17993;SDS011;9122;48.406;9.984;2023-03-11T14:52:09;6.53;;;4.50;;
17993;SDS011;9122;48.406;9.984;2023-03-11T14:54:59;2.07;;;1.73;;
17993;SDS011;9122;48.406;9.984;2023-03-11T15:00:42;2.87;;;2.03;;
17993;SDS011;9122;48.406;9.984;2023-03-11T15:04:04;2.87;;;1.50;;
17993;SDS011;9122;48.406;9.984;2023-03-11T15:06:49;2.93;;;2.03;;
17993;SDS011;9122;48.406;9.984;2023-03-11T15:09:33;1.70;;;1.60;;
17993;SDS011;9122;48.406;9.984;2023-03-11T15:12:30;1.50;;;1.17;;
17993;SDS011;9122;48.406;9.984;2023-03-11T15:15:22;2.17;;;1.97;;
17993;SDS011;9122;48.406;9.984;2023-03-11T15:18:22;3.00;;;2.10;;
17993;SDS011;9122;48.406;9.984;2023-03-11T15:21:18;3.10;;;2.80;;
17993;SDS011;9122;48.406;9.984;2023-03-11T15:24:04;2.80;;;2.60;;
17993;SDS011;9122;48.406;9.984;2023-03-11T15:29:38;2.53;;;2.33;;
17993;SDS011;9122;48.406;9.984;2023-03-11T15:32:40;1.83;;;1.73;;
17993;SDS011;9122;48.406;9.984;2023-03-11T15:35:29;1.83;;;1.73;;
17993;SDS011;9122;48.406;9.984;2023-03-11T15:38:24;2.87;;;2.57;;
17993;SDS011;9122;48.406;9.984;2023-03-11T15:41:11;3.90;;;1.83;;
17993;SDS011;9122;48.406;9.984;2023-03-11T15:43:56;1.60;;;1.50;;
17993;SDS011;9122;48.406;9.984;2023-03-11T15:46:44;8.80;;;2.53;;
17993;SDS011;9122;48.406;9.984;2023-03-11T15:49:29;2.10;;;1.27;;
17993;SDS011;9122;48.406;9.984;2023-03-11T15:52:14;15.10;;;1.90;;
17993;SDS011;9122;48.406;9.984;2023-03-11T15:54:59;1.77;;;1.67;;
17993;SDS011;9122;48.406;9.984;2023-03-11T15:57:44;1.80;;;1.50;;
17993;SDS011;9122;48.406;9.984;2023-03-11T16:00:33;1.77;;;1.67;;
17993;SDS011;9122;48.406;9.984;2023-03-11T16:03:18;1.20;;;1.10;;
17993;SDS011;9122;48.406;9.984;2023-03-11T16:06:03;1.53;;;1.20;;
17993;SDS011;9122;48.406;9.984;2023-03-11T16:08:48;2.20;;;1.53;;
17993;SDS011;9122;48.406;9.984;2023-03-11T16:11:32;1.60;;;1.50;;
17993;SDS011;9122;48.406;9.984;2023-03-11T16:14:19;2.27;;;1.60;;
17993;SDS011;9122;48.406;9.984;2023-03-11T16:17:04;1.63;;;1.53;;
17993;SDS011;9122;48.406;9.984;2023-03-11T16:19:48;1.60;;;1.50;;
17993;SDS011;9122;48.406;9.984;2023-03-11T16:22:33;2.87;;;1.93;;
17993;SDS011;9122;48.406;9.984;2023-03-11T16:28:24;2.27;;;2.07;;
17993;SDS011;9122;48.406;9.984;2023-03-11T16:31:14;1.63;;;1.53;;
17993;SDS011;9122;48.406;9.984;2023-03-11T16:33:59;1.70;;;1.40;;
17993;SDS011;9122;48.406;9.984;2023-03-11T16:36:43;2.07;;;1.87;;
17993;SDS011;9122;48.406;9.984;2023-03-11T16:39:28;1.63;;;1.53;;
17993;SDS011;9122;48.406;9.984;2023-03-11T16:42:14;1.63;;;1.53;;
17993;SDS011;9122;48.406;9.984;2023-03-11T16:45:06;1.40;;;1.40;;
17993;SDS011;9122;48.406;9.984;2023-03-11T16:47:50;2.00;;;1.80;;
17993;SDS011;9122;48.406;9.984;2023-03-11T16:50:35;2.93;;;1.87;;
17993;SDS011;9122;48.406;9.984;2023-03-11T16:53:20;1.70;;;1.40;;
17993;SDS011;9122;48.406;9.984;2023-03-11T16:56:04;1.83;;;1.73;;
17993;SDS011;9122;48.406;9.984;2023-03-11T16:58:49;2.50;;;2.30;;
17993;SDS011;9122;48.406;9.984;2023-03-11T17:01:34;1.90;;;1.80;;
17993;SDS011;9122;48.406;9.984;2023-03-11T17:04:21;1.83;;;1.73;;
17993;SDS011;9122;48.406;9.984;2023-03-11T17:07:06;2.90;;;1.37;;
17993;SDS011;9122;48.406;9.984;2023-03-11T17:09:51;1.87;;;1.77;;
17993;SDS011;9122;48.406;9.984;2023-03-11T17:12:37;1.67;;;1.57;;
17993;SDS011;9122;48.406;9.984;2023-03-11T17:15:21;4.07;;;2.00;;
17993;SDS011;9122;48.406;9.984;2023-03-11T17:18:06;1.63;;;1.53;;
17993;SDS011;9122;48.406;9.984;2023-03-11T17:20:50;1.90;;;1.70;;
17993;SDS011;9122;48.406;9.984;2023-03-11T17:23:35;1.60;;;1.50;;
17993;SDS011;9122;48.406;9.984;2023-03-11T17:26:20;2.30;;;2.07;;
17993;SDS011;9122;48.406;9.984;2023-03-11T17:29:06;4.17;;;3.23;;
17993;SDS011;9122;48.406;9.984;2023-03-11T17:31:51;2.17;;;1.97;;
17993;SDS011;9122;48.406;9.984;2023-03-11T17:34:35;1.80;;;1.60;;
17993;SDS011;9122;48.406;9.984;2023-03-11T17:37:19;2.50;;;1.87;;
17993;SDS011;9122;48.406;9.984;2023-03-11T17:40:05;1.90;;;1.57;;
17993;SDS011;9122;48.406;9.984;2023-03-11T17:42:54;4.30;;;2.27;;
17993;SDS011;9122;48.406;9.984;2023-03-11T17:45:39;4.67;;;3.23;;
17993;SDS011;9122;48.406;9.984;2023-03-11T17:48:24;3.73;;;2.27;;
17993;SDS011;9122;48.406;9.984;2023-03-11T17:51:11;6.07;;;5.37;;
17993;SDS011;9122;48.406;9.984;2023-03-11T17:53:58;3.50;;;3.20;;
17993;SDS011;9122;48.406;9.984;2023-03-11T17:56:42;5.47;;;4.90;;
17993;SDS011;9122;48.406;9.984;2023-03-11T17:59:27;4.23;;;3.00;;
17993;SDS011;9122;48.406;9.984;2023-03-11T18:02:12;4.20;;;3.50;;
17993;SDS011;9122;48.406;9.984;2023-03-11T18:04:57;5.00;;;4.20;;
17993;SDS011;9122;48.406;9.984;2023-03-11T18:07:41;3.53;;;3.23;;
17993;SDS011;9122;48.406;9.984;2023-03-11T18:10:26;4.87;;;4.33;;
17993;SDS011;9122;48.406;9.984;2023-03-11T18:13:11;4.57;;;3.33;;
17993;SDS011;9122;48.406;9.984;2023-03-11T18:19:11;3.20;;;2.90;;
17993;SDS011;9122;48.406;9.984;2023-03-11T18:21:55;4.07;;;2.57;;
17993;SDS011;9122;48.406;9.984;2023-03-11T18:24:40;2.50;;;2.30;;
17993;SDS011;9122;48.406;9.984;2023-03-11T18:27:24;2.17;;;2.07;;
17993;SDS011;9122;48.406;9.984;2023-03-11T18:30:09;2.90;;;2.20;;
17993;SDS011;9122;48.406;9.984;2023-03-11T18:33:00;2.43;;;2.20;;
17993;SDS011;9122;48.406;9.984;2023-03-11T18:35:45;2.50;;;2.30;;
17993;SDS011;9122;48.406;9.984;2023-03-11T18:38:29;2.53;;;2.33;;
17993;SDS011;9122;48.406;9.984;2023-03-11T18:41:17;2.53;;;2.33;;
17993;SDS011;9122;48.406;9.984;2023-03-11T18:44:02;3.63;;;2.40;;
17993;SDS011;9122;48.406;9.984;2023-03-11T18:46:50;3.47;;;2.37;;
17993;SDS011;9122;48.406;9.984;2023-03-11T18:49:34;9.07;;;3.10;;
17993;SDS011;9122;48.406;9.984;2023-03-11T18:52:19;2.80;;;2.60;;
17993;SDS011;9122;48.406;9.984;2023-03-11T18:55:05;4.33;;;3.27;;
17993;SDS011;9122;48.406;9.984;2023-03-11T18:57:50;4.63;;;2.80;;
17993;SDS011;9122;48.406;9.984;2023-03-11T19:00:36;3.07;;;2.83;;
17993;SDS011;9122;48.406;9.984;2023-03-11T19:03:20;2.97;;;2.70;;
17993;SDS011;9122;48.406;9.984;2023-03-11T19:06:09;3.07;;;2.87;;
17993;SDS011;9122;48.406;9.984;2023-03-11T19:08:55;3.10;;;2.90;;
17993;SDS011;9122;48.406;9.984;2023-03-11T19:11:43;4.23;;;2.77;;
17993;SDS011;9122;48.406;9.984;2023-03-11T19:14:28;2.63;;;2.43;;